TimeEST,TemperatureF,Dew PointF,Humidity,Sea Level PressureIn,VisibilityMPH,Wind Direction,Wind SpeedMPH,Gust SpeedMPH,PrecipitationIn,Events,Conditions,WindDirDegrees,DateUTC
12:15 AM,64.4,39.2,40,30.20,10.0,South,5.8,-,N/A,,Clear,180,2012-11-12 05:15:00
12:35 AM,64.4,41.0,42,30.20,10.0,South,4.6,-,N/A,,Clear,180,2012-11-12 05:35:00
12:55 AM,62.6,41.0,45,30.19,10.0,South,3.5,-,N/A,,Clear,190,2012-11-12 05:55:00
1:15 AM,62.6,41.0,45,30.19,10.0,SSE,3.5,-,N/A,,Clear,160,2012-11-12 06:15:00
1:35 AM,62.6,41.0,45,30.19,10.0,South,3.5,-,N/A,,Clear,170,2012-11-12 06:35:00
1:55 AM,62.6,41.0,45,30.19,10.0,Calm,Calm,-,N/A,,Clear,0,2012-11-12 06:55:00
2:15 AM,62.6,42.8,48,30.18,10.0,Calm,Calm,-,N/A,,Clear,0,2012-11-12 07:15:00
2:35 AM,60.8,42.8,52,30.19,10.0,Calm,Calm,-,N/A,,Clear,0,2012-11-12 07:35:00
2:55 AM,59.0,42.8,55,30.19,10.0,Calm,Calm,-,N/A,,Clear,0,2012-11-12 07:55:00
3:15 AM,53.6,42.8,67,30.18,10.0,Calm,Calm,-,N/A,,Clear,0,2012-11-12 08:15:00
3:35 AM,53.6,42.8,67,30.18,10.0,Calm,Calm,-,N/A,,Clear,0,2012-11-12 08:35:00
3:55 AM,51.8,42.8,71,30.17,10.0,Calm,Calm,-,N/A,,Clear,0,2012-11-12 08:55:00
4:35 AM,51.8,42.8,71,30.17,10.0,Calm,Calm,-,N/A,,Clear,0,2012-11-12 09:35:00
4:55 AM,50.0,42.8,76,30.16,10.0,Calm,Calm,-,N/A,,Clear,0,2012-11-12 09:55:00
5:15 AM,50.0,42.8,76,30.16,10.0,East,3.5,-,N/A,,Clear,80,2012-11-12 10:15:00
5:35 AM,50.0,41.0,71,30.15,10.0,East,3.5,-,N/A,,Clear,80,2012-11-12 10:35:00
5:55 AM,50.0,42.8,76,30.14,10.0,East,3.5,-,N/A,,Clear,100,2012-11-12 10:55:00
6:15 AM,48.2,41.0,76,30.14,10.0,Calm,Calm,-,N/A,,Clear,0,2012-11-12 11:15:00
6:35 AM,50.0,42.8,76,30.14,10.0,East,3.5,-,N/A,,Clear,100,2012-11-12 11:35:00
6:55 AM,51.8,44.6,76,30.14,10.0,ESE,3.5,-,N/A,,Clear,110,2012-11-12 11:55:00
7:15 AM,57.2,44.6,63,30.12,10.0,ESE,5.8,-,N/A,,Clear,110,2012-11-12 12:15:00
7:55 AM,60.8,44.6,55,30.14,10.0,ESE,4.6,-,N/A,,Clear,120,2012-11-12 12:55:00
8:15 AM,62.6,46.4,55,30.14,10.0,SSE,4.6,-,N/A,,Clear,150,2012-11-12 13:15:00
8:35 AM,62.6,46.4,55,30.15,10.0,South,3.5,-,N/A,,Clear,190,2012-11-12 13:35:00
8:55 AM,64.4,46.4,52,30.16,10.0,South,5.8,-,N/A,,Clear,170,2012-11-12 13:55:00
9:15 AM,64.4,46.4,52,30.15,10.0,SSE,8.1,-,N/A,,Clear,150,2012-11-12 14:15:00
9:35 AM,66.2,46.4,49,30.15,10.0,South,5.8,-,N/A,,Scattered Clouds,180,2012-11-12 14:35:00
9:55 AM,66.2,46.4,49,30.14,10.0,South,8.1,-,N/A,,Overcast,190,2012-11-12 14:55:00
10:15 AM,68.0,46.4,46,30.12,10.0,South,11.5,16.1,N/A,,Mostly Cloudy,170,2012-11-12 15:15:00
10:35 AM,68.0,46.4,46,30.12,10.0,South,11.5,19.6,N/A,,Mostly Cloudy,170,2012-11-12 15:35:00
10:55 AM,68.0,46.4,46,30.12,10.0,SSW,12.7,17.3,N/A,,Overcast,200,2012-11-12 15:55:00
11:15 AM,68.0,46.4,46,30.10,10.0,South,9.2,17.3,N/A,,Overcast,190,2012-11-12 16:15:00
11:35 AM,68.0,46.4,46,30.09,10.0,South,8.1,18.4,N/A,,Overcast,190,2012-11-12 16:35:00
11:55 AM,68.0,46.4,46,30.08,10.0,SSW,8.1,17.3,N/A,,Mostly Cloudy,200,2012-11-12 16:55:00
12:15 PM,69.8,44.6,40,30.06,10.0,South,9.2,17.3,N/A,,Overcast,180,2012-11-12 17:15:00
12:35 PM,69.8,44.6,40,30.05,10.0,South,11.5,18.4,N/A,,Overcast,190,2012-11-12 17:35:00
12:55 PM,69.8,44.6,40,30.04,10.0,SSW,6.9,23.0,N/A,,Overcast,210,2012-11-12 17:55:00
1:15 PM,68.0,50.0,52,30.04,7.0,SW,8.1,19.6,N/A,Rain,Light Rain,220,2012-11-12 18:15:00
1:35 PM,66.2,50.0,56,30.03,10.0,South,11.5,16.1,N/A,Rain,Light Rain,190,2012-11-12 18:35:00
1:55 PM,64.4,50.0,59,30.02,10.0,WSW,6.9,-,N/A,,Overcast,240,2012-11-12 18:55:00
2:15 PM,64.4,50.0,59,30.03,10.0,WSW,6.9,-,N/A,,Overcast,240,2012-11-12 19:15:00
2:35 PM,57.2,51.8,82,30.08,2.5,WNW,11.5,20.7,N/A,Rain,Light Rain,290,2012-11-12 19:35:00
2:55 PM,53.6,48.2,82,30.10,7.0,West,5.8,-,N/A,,Overcast,280,2012-11-12 19:55:00
3:15 PM,51.8,50.0,94,30.11,2.0,West,5.8,-,N/A,,Light Drizzle,280,2012-11-12 20:15:00
3:35 PM,51.8,50.0,94,30.13,1.8,West,6.9,-,N/A,,Drizzle,280,2012-11-12 20:35:00
3:55 PM,50.0,48.2,94,30.15,1.8,West,6.9,-,N/A,Rain,Rain,280,2012-11-12 20:55:00
4:15 PM,50.0,46.4,87,30.18,1.8,West,6.9,-,N/A,Rain,Rain,270,2012-11-12 21:15:00
4:35 PM,50.0,46.4,87,30.19,4.0,WNW,6.9,-,N/A,Rain,Light Rain,290,2012-11-12 21:35:00
4:55 PM,46.4,44.6,93,30.22,4.0,WNW,8.1,-,N/A,Rain,Light Rain,290,2012-11-12 21:55:00
5:15 PM,46.4,42.8,87,30.24,5.0,West,8.1,-,N/A,Rain,Light Rain,280,2012-11-12 22:15:00
5:35 PM,44.6,42.8,93,30.25,5.0,West,4.6,-,N/A,Rain,Light Rain,280,2012-11-12 22:35:00
5:55 PM,44.6,41.0,87,30.27,5.0,West,6.9,18.4,N/A,Rain,Light Rain,260,2012-11-12 22:55:00
6:15 PM,44.6,41.0,87,30.27,10.0,WSW,6.9,-,N/A,Rain,Light Rain,240,2012-11-12 23:15:00
6:35 PM,42.8,39.2,87,30.30,10.0,WSW,8.1,-,N/A,,Overcast,240,2012-11-12 23:35:00
6:55 PM,42.8,39.2,87,30.31,10.0,SW,9.2,-,N/A,Rain,Light Rain,230,2012-11-12 23:55:00
7:15 PM,42.8,39.2,87,30.31,10.0,WSW,6.9,-,N/A,Rain,Light Rain,240,2012-11-13 00:15:00
7:35 PM,42.8,37.4,81,30.32,10.0,WSW,5.8,-,N/A,,Light Drizzle,250,2012-11-13 00:35:00
7:55 PM,42.8,37.4,81,30.32,10.0,WSW,5.8,-,N/A,,Overcast,250,2012-11-13 00:55:00
8:15 PM,42.8,37.4,81,30.33,10.0,West,6.9,-,N/A,,Overcast,280,2012-11-13 01:15:00
8:35 PM,42.8,37.4,81,30.34,10.0,WNW,3.5,-,N/A,,Overcast,290,2012-11-13 01:35:00
8:55 PM,41.0,35.6,81,30.35,10.0,West,8.1,-,N/A,,Overcast,280,2012-11-13 01:55:00
9:15 PM,41.0,35.6,81,30.36,10.0,WNW,3.5,-,N/A,,Overcast,300,2012-11-13 02:15:00
9:35 PM,37.4,33.8,87,30.37,10.0,WNW,5.8,-,N/A,,Mostly Cloudy,290,2012-11-13 02:35:00
9:55 PM,37.4,32.0,81,30.40,10.0,WNW,4.6,-,N/A,,Mostly Cloudy,290,2012-11-13 02:55:00
10:15 PM,35.6,32.0,87,30.41,10.0,WNW,6.9,-,N/A,,Scattered Clouds,300,2012-11-13 03:15:00
10:35 PM,35.6,30.2,81,30.42,10.0,Calm,Calm,-,N/A,,Clear,0,2012-11-13 03:35:00
10:55 PM,33.8,30.2,87,30.43,10.0,Calm,Calm,-,N/A,,Clear,0,2012-11-13 03:55:00
11:15 PM,32.0,30.2,93,30.43,10.0,Calm,Calm,-,N/A,,Clear,0,2012-11-13 04:15:00
11:35 PM,32.0,30.2,93,30.43,10.0,Calm,Calm,-,N/A,,Scattered Clouds,0,2012-11-13 04:35:00
11:55 PM,32.0,30.2,93,30.44,10.0,Calm,Calm,-,N/A,,Clear,0,2012-11-13 04:55:00